Time;durP1;ratioP1;P1;durP2;ratioP2;P2;SDS_P1;SDS_P2;PMS_P1;PMS_P2;Temp;Humidity;BMP_temperature;BMP_pressure;BME280_temperature;BME280_humidity;BME280_pressure;Samples;Min_cycle;Max_cycle;Signal;HPM_P1;HPM_P2
2023/03/17 00:02:02;;;;;;;6.50;2.23;;;;;;;4.71;100.00;100765.69;7396561;19;20427;-40
2023/03/17 00:04:32;;;;;;;4.53;2.00;;;;;;;4.71;100.00;100761.47;7390494;19;20478;-40
2023/03/17 00:07:01;;;;;;;5.40;2.10;;;;;;;4.69;100.00;100765.59;7396355;19;20395;-40
2023/03/17 00:09:33;;;;;;;4.83;2.20;;;;;;;4.66;100.00;100774.75;7389881;19;20470;-40
2023/03/17 00:12:03;;;;;;;5.87;2.40;;;;;;;4.68;100.00;100766.38;7395883;19;20403;-40
2023/03/17 00:14:32;;;;;;;4.80;2.13;;;;;;;4.67;100.00;100773.97;7389220;19;20483;-41
2023/03/17 00:17:01;;;;;;;4.93;1.90;;;;;;;4.64;100.00;100766.97;7395423;19;20408;-41
2023/03/17 00:19:32;;;;;;;7.60;2.63;;;;;;;4.62;100.00;100765.09;7390362;19;20443;-40
2023/03/17 00:22:04;;;;;;;7.67;3.03;;;;;;;4.62;100.00;100755.78;7395139;19;20419;-40
2023/03/17 00:24:36;;;;;;;18.27;4.20;;;;;;;4.68;100.00;100742.50;7389103;19;20949;-40
2023/03/17 00:27:12;;;;;;;6.07;2.03;;;;;;;4.64;100.00;100749.06;7393448;19;20391;-40
2023/03/17 00:29:42;;;;;;;4.40;2.13;;;;;;;4.62;100.00;100767.66;7384537;19;20458;-41
2023/03/17 00:32:19;;;;;;;6.60;2.43;;;;;;;4.66;100.00;100757.72;7392243;19;20403;-39
2023/03/17 00:34:48;;;;;;;5.30;2.27;;;;;;;4.60;100.00;100775.22;7390426;19;21060;-40
2023/03/17 00:37:18;;;;;;;34.23;10.33;;;;;;;4.65;100.00;100760.16;7393635;19;20939;-40
2023/03/17 00:39:50;;;;;;;4.97;1.87;;;;;;;4.66;100.00;100760.28;7388123;19;20958;-39
2023/03/17 00:42:20;;;;;;;5.67;1.77;;;;;;;4.58;100.00;100749.53;7394004;19;20399;-39
2023/03/17 00:44:50;;;;;;;4.30;2.00;;;;;;;4.62;100.00;100750.66;7390041;19;20462;-38
2023/03/17 00:47:19;;;;;;;7.77;2.30;;;;;;;4.66;100.00;100736.41;7393349;19;20764;-40
2023/03/17 00:49:49;;;;;;;7.10;2.47;;;;;;;4.65;100.00;100739.72;7389751;19;20447;-40
2023/03/17 00:52:18;;;;;;;7.33;2.57;;;;;;;4.67;100.00;100710.94;7391598;19;20426;-41
2023/03/17 00:54:51;;;;;;;5.93;2.00;;;;;;;4.70;100.00;100703.47;7388245;19;20802;-39
2023/03/17 00:57:20;;;;;;;6.63;2.40;;;;;;;4.77;100.00;100688.53;7393368;19;20395;-40
2023/03/17 00:59:50;;;;;;;8.90;2.63;;;;;;;4.77;100.00;100693.63;7389861;19;20432;-39
2023/03/17 01:02:19;;;;;;;3.83;2.00;;;;;;;4.82;100.00;100687.16;7393336;19;20395;-39
2023/03/17 01:04:49;;;;;;;4.73;2.13;;;;;;;4.69;100.00;100703.38;7390215;19;20458;-44
2023/03/17 01:07:32;;;;;;;5.80;2.60;;;;;;;4.65;100.00;100692.06;7393894;19;20752;-40
2023/03/17 01:10:05;;;;;;;4.57;1.93;;;;;;;4.66;100.00;100686.16;7390063;19;20447;-41
2023/03/17 01:12:34;;;;;;;6.10;2.20;;;;;;;4.61;100.00;100692.63;7394132;19;20407;-38
2023/03/17 01:15:04;;;;;;;5.33;2.40;;;;;;;4.67;100.00;100687.06;7390194;19;21235;-39
2023/03/17 01:17:34;;;;;;;5.40;2.20;;;;;;;4.64;100.00;100695.41;7393463;19;20400;-43
2023/03/17 01:20:04;;;;;;;4.97;2.07;;;;;;;4.65;100.00;100684.41;7390302;19;20450;-43
2023/03/17 01:22:34;;;;;;;4.93;2.20;;;;;;;4.58;100.00;100687.34;7393026;19;20949;-40
2023/03/17 01:25:07;;;;;;;5.47;2.27;;;;;;;4.57;100.00;100700.91;7389850;19;20462;-40
2023/03/17 01:27:36;;;;;;;7.60;2.20;;;;;;;4.52;100.00;100695.47;7393949;19;20431;-41
2023/03/17 01:30:08;;;;;;;5.30;2.03;;;;;;;4.57;100.00;100695.81;7388537;19;20971;-41
2023/03/17 01:32:38;;;;;;;5.87;2.20;;;;;;;4.58;100.00;100675.44;7393067;19;20499;-42
2023/03/17 01:35:09;;;;;;;7.47;2.83;;;;;;;4.60;100.00;100678.09;7392266;19;20478;-39
2023/03/17 01:37:38;;;;;;;5.10;2.23;;;;;;;4.54;100.00;100686.25;7400012;19;20426;-41
2023/03/17 01:40:16;;;;;;;8.03;2.60;;;;;;;4.49;100.00;100669.75;7396635;19;20443;-40
2023/03/17 01:42:46;;;;;;;4.70;1.83;;;;;;;4.48;100.00;100662.88;7400783;19;20395;-40
2023/03/17 01:45:47;;;;;;;5.23;2.30;;;;;;;4.48;100.00;100665.41;7395209;19;20435;-42
2023/03/17 01:48:17;;;;;;;5.47;2.30;;;;;;;4.41;100.00;100664.13;7396283;19;20406;-40
2023/03/17 01:50:48;;;;;;;7.40;2.80;;;;;;;4.37;100.00;100649.41;7398710;19;20396;-40
2023/03/17 01:53:19;;;;;;;5.73;2.13;;;;;;;4.39;100.00;100618.81;7396078;19;20943;-41
2023/03/17 01:55:52;;;;;;;7.60;2.60;;;;;;;4.33;100.00;100622.75;7396993;19;20443;-42
2023/03/17 01:58:23;;;;;;;5.80;2.43;;;;;;;4.41;100.00;100610.47;7392482;19;20447;-39
2023/03/17 02:00:52;;;;;;;9.63;2.37;;;;;;;4.31;100.00;100610.69;7397416;19;20407;-43
2023/03/17 02:03:22;;;;;;;8.70;2.73;;;;;;;4.30;100.00;100609.78;7391214;19;20407;-43
2023/03/17 02:05:52;;;;;;;4.57;2.40;;;;;;;4.16;100.00;100613.97;7396113;19;20454;-41
2023/03/17 02:08:22;;;;;;;6.10;2.90;;;;;;;4.20;100.00;100592.06;7393819;19;20419;-41
2023/03/17 02:10:55;;;;;;;6.27;3.30;;;;;;;4.19;100.00;100586.09;7397277;19;20412;-41
2023/03/17 02:13:25;;;;;;;4.83;2.30;;;;;;;4.22;100.00;100581.97;7393768;19;20395;-43
2023/03/17 02:15:55;;;;;;;5.97;2.47;;;;;;;4.21;100.00;100562.34;7396143;19;20451;-43
2023/03/17 02:18:26;;;;;;;5.90;2.20;;;;;;;4.18;100.00;100561.34;7393283;19;20420;-41
2023/03/17 02:21:31;;;;;;;7.03;2.93;;;;;;;4.10;100.00;100549.75;7398058;19;20407;-42
2023/03/17 02:24:06;;;;;;;6.43;3.17;;;;;;;4.11;100.00;100541.28;7394397;19;20459;-43
2023/03/17 02:26:37;;;;;;;6.30;2.73;;;;;;;4.05;100.00;100541.78;7394140;19;20427;-42
2023/03/17 02:29:07;;;;;;;6.83;2.57;;;;;;;4.09;100.00;100537.75;7389120;19;20431;-39
2023/03/17 02:31:36;;;;;;;5.80;2.40;;;;;;;4.15;100.00;100540.72;7396217;19;20404;-42
2023/03/17 02:34:06;;;;;;;8.10;2.90;;;;;;;4.12;100.00;100548.19;7392097;19;20438;-42
2023/03/17 02:36:36;;;;;;;5.10;2.70;;;;;;;4.20;100.00;100556.31;7394357;19;20457;-39
2023/03/17 02:39:08;;;;;;;7.50;2.47;;;;;;;4.13;100.00;100555.06;7391952;19;20467;-39
2023/03/17 02:41:38;;;;;;;6.00;3.17;;;;;;;4.08;100.00;100560.63;7396607;19;20418;-40
2023/03/17 02:44:07;;;;;;;9.30;3.20;;;;;;;4.01;100.00;100570.44;7392263;19;20439;-41
2023/03/17 02:46:37;;;;;;;5.33;3.00;;;;;;;4.02;100.00;100558.59;7393201;19;20656;-42
2023/03/17 02:49:07;;;;;;;8.47;2.73;;;;;;;4.10;100.00;100548.88;7392058;19;20443;-40
2023/03/17 02:51:36;;;;;;;7.17;2.67;;;;;;;4.23;100.00;100546.31;7396701;19;20400;-42
2023/03/17 02:54:08;;;;;;;4.63;2.53;;;;;;;4.21;100.00;100552.13;7391936;19;20443;-40
2023/03/17 02:56:38;;;;;;;6.27;2.77;;;;;;;4.23;100.00;100548.88;7394766;19;20445;-41
2023/03/17 02:59:08;;;;;;;12.60;3.20;;;;;;;4.05;100.00;100541.78;7391914;19;20785;-40
2023/03/17 03:01:38;;;;;;;7.67;3.00;;;;;;;4.10;100.00;100536.09;7396706;19;20787;-41
2023/03/17 03:04:08;;;;;;;5.10;2.20;;;;;;;4.07;100.00;100531.69;7392639;19;20439;-44
2023/03/17 03:06:38;;;;;;;7.30;3.00;;;;;;;4.04;100.00;100537.47;7394444;19;20835;-43
2023/03/17 03:09:11;;;;;;;6.80;2.97;;;;;;;4.07;100.00;100531.69;7391963;19;20797;-41
2023/03/17 03:11:41;;;;;;;6.00;2.93;;;;;;;4.14;100.00;100530.41;7395981;19;20404;-42
2023/03/17 03:14:11;;;;;;;7.33;3.30;;;;;;;4.15;100.00;100535.59;7392669;19;20435;-44
2023/03/17 03:16:42;;;;;;;7.50;2.87;;;;;;;4.10;100.00;100534.41;7394846;19;20431;-40
2023/03/17 03:19:11;;;;;;;8.27;2.50;;;;;;;4.08;100.00;100530.91;7392424;19;20426;-43
2023/03/17 03:21:41;;;;;;;5.00;2.50;;;;;;;4.13;100.00;100538.84;7397314;19;20407;-40
2023/03/17 03:24:13;;;;;;;5.27;2.40;;;;;;;4.23;100.00;100533.56;7392013;19;20994;-40
2023/03/17 03:26:43;;;;;;;5.27;2.70;;;;;;;4.18;100.00;100543.47;7397011;19;20400;-44
2023/03/17 03:29:12;;;;;;;8.63;2.83;;;;;;;4.08;100.00;100541.09;7388819;19;20419;-43
2023/03/17 03:31:41;;;;;;;6.87;2.70;;;;;;;4.25;100.00;100543.88;7395654;19;20934;-40
2023/03/17 03:34:11;;;;;;;5.20;2.80;;;;;;;4.22;100.00;100536.91;7391581;19;20447;-46
2023/03/17 03:36:40;;;;;;;6.50;2.73;;;;;;;4.17;100.00;100546.78;7393833;19;20439;-41
2023/03/17 03:39:12;;;;;;;6.60;2.80;;;;;;;4.09;100.00;100530.09;7391366;19;20436;-42
2023/03/17 03:41:42;;;;;;;5.90;2.63;;;;;;;4.14;100.00;100525.28;7396119;19;20411;-44
2023/03/17 03:44:12;;;;;;;5.67;2.50;;;;;;;4.16;100.00;100527.16;7391487;19;20419;-42
2023/03/17 03:46:41;;;;;;;6.53;3.30;;;;;;;4.26;100.00;100527.75;7394087;19;20431;-41
2023/03/17 03:49:11;;;;;;;7.10;2.60;;;;;;;4.22;100.00;100521.56;7391233;19;20449;-40
2023/03/17 03:51:40;;;;;;;5.00;2.60;;;;;;;4.15;100.00;100499.84;7394826;19;20778;-42
2023/03/17 03:54:12;;;;;;;5.33;2.90;;;;;;;4.05;100.00;100489.81;7390690;19;20549;-44
2023/03/17 03:56:42;;;;;;;6.30;3.20;;;;;;;4.12;100.00;100471.59;7394245;19;20432;-42
2023/03/17 03:59:11;;;;;;;6.60;2.53;;;;;;;4.11;100.00;100446.81;7387932;19;20431;-42
2023/03/17 04:01:41;;;;;;;5.50;2.63;;;;;;;3.92;100.00;100445.69;7394807;19;20404;-41
2023/03/17 04:04:10;;;;;;;7.00;3.23;;;;;;;3.92;100.00;100455.88;7390027;19;20466;-41
2023/03/17 04:06:39;;;;;;;7.00;3.23;;;;;;;3.94;100.00;100462.75;7394119;19;20459;-42
2023/03/17 04:09:09;;;;;;;7.67;3.80;;;;;;;4.02;100.00;100466.66;7389918;19;20441;-40
2023/03/17 04:11:41;;;;;;;6.07;3.03;;;;;;;3.95;100.00;100487.50;7394343;19;20411;-42
2023/03/17 04:14:11;;;;;;;5.93;2.70;;;;;;;4.00;100.00;100486.13;7390605;19;20447;-40
2023/03/17 04:16:41;;;;;;;5.73;2.73;;;;;;;3.95;100.00;100482.38;7393372;19;20435;-42
2023/03/17 04:19:12;;;;;;;6.30;3.37;;;;;;;3.99;100.00;100469.03;7389726;19;20431;-40
2023/03/17 04:21:42;;;;;;;5.80;2.57;;;;;;;4.07;100.00;100461.84;7394544;19;20403;-40
2023/03/17 04:24:11;;;;;;;7.83;3.40;;;;;;;3.86;100.00;100457.16;7390411;19;20946;-42
2023/03/17 04:26:43;;;;;;;6.00;3.17;;;;;;;3.88;100.00;100453.91;7392980;19;20978;-40
2023/03/17 04:29:14;;;;;;;10.23;3.83;;;;;;;3.97;100.00;100453.63;7388184;19;20556;-40
2023/03/17 04:31:44;;;;;;;9.83;3.10;;;;;;;3.98;100.00;100454.47;7393796;19;20428;-43
2023/03/17 04:34:17;;;;;;;7.00;3.60;;;;;;;3.86;100.00;100452.94;7390245;19;20446;-40
2023/03/17 04:36:48;;;;;;;6.43;3.17;;;;;;;3.94;100.00;100455.97;7394249;19;20487;-40
2023/03/17 04:39:18;;;;;;;7.37;3.77;;;;;;;3.98;100.00;100468.16;7389561;19;20434;-41
2023/03/17 04:41:50;;;;;;;6.60;3.23;;;;;;;3.95;100.00;100464.53;7394825;19;20442;-40
2023/03/17 04:44:19;;;;;;;6.17;3.57;;;;;;;3.78;100.00;100464.31;7389822;19;20420;-41
2023/03/17 04:46:49;;;;;;;8.90;3.50;;;;;;;3.81;100.00;100464.53;7394322;19;20403;-44
2023/03/17 04:49:18;;;;;;;8.60;3.63;;;;;;;3.79;100.00;100466.06;7388885;19;20431;-42
2023/03/17 04:51:48;;;;;;;6.70;3.73;;;;;;;3.86;100.00;100459.69;7393600;19;20404;-40
2023/03/17 04:54:17;;;;;;;10.03;3.53;;;;;;;3.87;100.00;100449.59;7389225;19;20470;-41
2023/03/17 04:56:49;;;;;;;7.23;3.33;;;;;;;3.91;100.00;100450.69;7394010;19;21267;-42
2023/03/17 04:59:19;;;;;;;8.60;3.93;;;;;;;3.96;100.00;100456.06;7388614;19;20446;-41
2023/03/17 05:01:48;;;;;;;8.10;3.73;;;;;;;3.85;100.00;100446.03;7393863;19;20403;-41
2023/03/17 05:04:18;;;;;;;8.13;3.40;;;;;;;3.89;100.00;100445.47;7389324;19;20430;-41
2023/03/17 05:07:00;;;;;;;7.40;3.47;;;;;;;3.81;100.00;100441.56;7394380;19;20760;-41
2023/03/17 05:09:29;;;;;;;8.50;3.83;;;;;;;3.84;100.00;100428.97;7391478;19;20443;-41
2023/03/17 05:12:01;;;;;;;9.60;3.43;;;;;;;3.72;100.00;100433.28;7401004;19;20410;-41
2023/03/17 05:14:31;;;;;;;7.00;3.70;;;;;;;3.78;100.00;100433.69;7396921;19;20443;-42
2023/03/17 05:17:00;;;;;;;6.30;3.03;;;;;;;3.81;100.00;100428.78;7401932;19;20407;-39
2023/03/17 05:19:30;;;;;;;11.10;3.90;;;;;;;3.77;100.00;100427.72;7396342;19;20443;-39
2023/03/17 05:21:59;;;;;;;8.80;4.90;;;;;;;3.80;100.00;100432.13;7401897;19;20955;-42
2023/03/17 05:24:29;;;;;;;7.97;3.70;;;;;;;3.77;100.00;100430.25;7397204;19;20423;-39
2023/03/17 05:26:58;;;;;;;10.80;4.27;;;;;;;3.65;100.00;100427.78;7401223;19;20864;-40
2023/03/17 05:29:30;;;;;;;6.53;3.33;;;;;;;3.56;100.00;100428.88;7394788;19;20978;-41
2023/03/17 05:32:00;;;;;;;5.80;3.47;;;;;;;3.51;100.00;100423.47;7401494;19;20426;-40
2023/03/17 05:34:30;;;;;;;8.00;4.33;;;;;;;3.56;100.00;100409.34;7394592;19;20446;-41
2023/03/17 05:36:59;;;;;;;9.53;4.03;;;;;;;3.58;100.00;100412.88;7400962;19;20978;-42
2023/03/17 05:39:29;;;;;;;8.13;3.80;;;;;;;3.55;100.00;100414.34;7395517;19;20427;-41
2023/03/17 05:41:58;;;;;;;8.73;3.93;;;;;;;3.61;100.00;100410.53;7401132;19;20403;-43
2023/03/17 05:44:30;;;;;;;11.13;3.73;;;;;;;3.63;100.00;100406.41;7395512;19;20852;-41
2023/03/17 05:47:01;;;;;;;9.43;3.77;;;;;;;3.57;100.00;100405.13;7400880;19;20423;-43
2023/03/17 05:49:31;;;;;;;8.50;4.00;;;;;;;3.57;100.00;100407.66;7394483;19;20435;-41
2023/03/17 05:52:00;;;;;;;10.07;4.43;;;;;;;3.63;100.00;100411.50;7400867;19;20410;-41
2023/03/17 05:54:30;;;;;;;9.63;4.03;;;;;;;3.63;100.00;100403.84;7394171;19;20442;-43
2023/03/17 05:56:59;;;;;;;9.43;3.97;;;;;;;3.57;100.00;100395.81;7400526;19;20403;-40
2023/03/17 05:59:35;;;;;;;10.20;4.30;;;;;;;3.60;100.00;100395.97;7391355;19;20446;-37
2023/03/17 06:02:04;;;;;;;7.33;3.90;;;;;;;3.69;100.00;100388.03;7400087;19;20403;-36
2023/03/17 06:04:34;;;;;;;17.23;7.50;;;;;;;3.57;100.00;100392.34;7394793;19;20460;-38
2023/03/17 06:07:03;;;;;;;10.83;4.40;;;;;;;3.63;100.00;100393.66;7400606;19;20386;-36
2023/03/17 06:09:33;;;;;;;9.43;3.73;;;;;;;3.65;100.00;100404.81;7393903;19;20467;-39
2023/03/17 06:12:03;;;;;;;11.10;4.13;;;;;;;3.73;100.00;100401.88;7400881;19;20416;-38
2023/03/17 06:14:35;;;;;;;14.70;4.17;;;;;;;3.66;100.00;100410.81;7392533;19;20433;-38
2023/03/17 06:17:05;;;;;;;8.13;3.53;;;;;;;3.64;100.00;100409.84;7400021;19;20414;-38
2023/03/17 06:19:34;;;;;;;9.60;5.00;;;;;;;3.66;100.00;100403.16;7394567;19;20459;-37
2023/03/17 06:22:04;;;;;;;9.43;3.87;;;;;;;3.67;100.00;100407.47;7397546;19;20790;-36
2023/03/17 06:24:33;;;;;;;8.97;3.97;;;;;;;3.62;100.00;100417.41;7394708;19;21034;-36
2023/03/17 06:27:03;;;;;;;8.23;4.40;;;;;;;3.64;100.00;100409.84;7400363;19;20414;-38
2023/03/17 06:29:35;;;;;;;10.03;4.50;;;;;;;3.63;100.00;100403.84;7392937;19;20462;-41
2023/03/17 06:32:04;;;;;;;6.77;3.83;;;;;;;3.71;100.00;100411.13;7399871;19;20759;-36
2023/03/17 06:34:48;;;;;;;6.90;3.80;;;;;;;3.74;100.00;100401.97;7394889;19;21051;-37
2023/03/17 06:37:18;;;;;;;8.50;3.70;;;;;;;3.76;100.00;100409.75;7398503;19;20783;-41
2023/03/17 06:39:47;;;;;;;8.20;4.03;;;;;;;3.83;100.00;100406.78;7394284;19;20882;-36
2023/03/17 06:42:18;;;;;;;9.90;3.93;;;;;;;3.88;100.00;100405.41;7397968;19;20404;-37
2023/03/17 06:44:51;;;;;;;13.37;4.63;;;;;;;3.85;100.00;100410.31;7392410;19;20443;-38
2023/03/17 06:47:21;;;;;;;9.30;4.50;;;;;;;3.87;100.00;100407.88;7398390;19;20407;-38
2023/03/17 06:49:54;;;;;;;10.10;5.37;;;;;;;3.82;100.00;100412.69;7394092;19;20462;-39
2023/03/17 06:52:23;;;;;;;9.47;4.13;;;;;;;3.85;100.00;100414.56;7397942;19;20427;-40
2023/03/17 06:54:53;;;;;;;8.17;4.00;;;;;;;3.89;100.00;100422.50;7393592;19;20451;-36
2023/03/17 06:57:22;;;;;;;8.10;3.93;;;;;;;4.00;100.00;100417.19;7397707;19;20471;-38
2023/03/17 06:59:55;;;;;;;8.93;4.13;;;;;;;4.13;100.00;100416.28;7394106;19;20817;-38
2023/03/17 07:02:24;;;;;;;8.13;4.20;;;;;;;4.11;100.00;100423.81;7397533;19;20404;-36
2023/03/17 07:04:56;;;;;;;7.97;4.60;;;;;;;4.10;100.00;100429.72;7395130;19;20450;-36
2023/03/17 07:07:26;;;;;;;8.83;4.20;;;;;;;4.12;100.00;100434.94;7397296;19;20937;-37
2023/03/17 07:09:55;;;;;;;10.47;4.50;;;;;;;4.22;100.00;100432.19;7393495;19;20467;-36
2023/03/17 07:12:24;;;;;;;8.27;4.10;;;;;;;4.28;100.00;100431.66;7397575;19;20411;-37
2023/03/17 07:14:56;;;;;;;8.83;3.87;;;;;;;4.31;100.00;100430.19;7394585;19;20451;-36
2023/03/17 07:17:26;;;;;;;10.20;4.47;;;;;;;4.32;100.00;100428.53;7397126;19;20419;-36
2023/03/17 07:19:55;;;;;;;11.90;4.00;;;;;;;4.38;100.00;100422.91;7393414;19;20446;-40
2023/03/17 07:22:25;;;;;;;8.07;4.17;;;;;;;4.28;100.00;100411.22;7396740;19;20427;-36
2023/03/17 07:24:54;;;;;;;9.27;5.00;;;;;;;4.38;100.00;100418.69;7392811;19;20431;-36
2023/03/17 07:27:25;;;;;;;6.87;4.00;;;;;;;4.36;100.00;100430.47;7396370;19;20414;-37
2023/03/17 07:29:59;;;;;;;7.93;3.90;;;;;;;4.44;100.00;100436.94;7392466;19;20454;-36
2023/03/17 07:32:28;;;;;;;8.00;4.37;;;;;;;4.48;100.00;100438.00;7396321;19;20388;-38
2023/03/17 07:34:58;;;;;;;8.23;4.50;;;;;;;4.58;100.00;100447.13;7391319;19;20443;-36
2023/03/17 07:37:28;;;;;;;8.50;4.70;;;;;;;4.68;100.00;100435.78;7396745;19;20410;-38
2023/03/17 07:40:00;;;;;;;12.27;5.30;;;;;;;4.78;100.00;100442.34;7392750;19;20748;-36
2023/03/17 07:42:30;;;;;;;10.60;4.20;;;;;;;4.86;100.00;100443.66;7396808;19;20947;-38
2023/03/17 07:45:02;;;;;;;8.47;4.10;;;;;;;4.89;100.00;100454.09;7391429;19;20443;-38
2023/03/17 07:47:32;;;;;;;11.17;5.10;;;;;;;4.94;100.00;100459.47;7396127;19;20407;-36
2023/03/17 07:50:02;;;;;;;9.87;4.70;;;;;;;4.97;100.00;100446.88;7392495;19;20451;-35
2023/03/17 07:52:31;;;;;;;8.97;4.50;;;;;;;5.17;100.00;100445.47;7395475;19;20400;-38
2023/03/17 07:55:01;;;;;;;9.50;4.53;;;;;;;5.21;100.00;100444.88;7392551;19;20833;-38
2023/03/17 07:57:30;;;;;;;7.93;3.90;;;;;;;5.37;100.00;100444.09;7396650;19;20425;-38
2023/03/17 08:00:02;;;;;;;9.57;4.40;;;;;;;5.42;100.00;100451.16;7391905;19;20451;-38
2023/03/17 08:02:32;;;;;;;11.27;4.53;;;;;;;5.45;100.00;100465.03;7394031;19;20427;-37
2023/03/17 08:05:02;;;;;;;12.13;4.30;;;;;;;5.52;100.00;100462.00;7392731;19;20445;-35
2023/03/17 08:07:32;;;;;;;8.43;4.40;;;;;;;5.53;100.00;100479.13;7393389;19;20407;-38
2023/03/17 08:10:02;;;;;;;6.70;3.80;;;;;;;5.59;100.00;100480.28;7389046;19;20962;-40
2023/03/17 08:12:31;;;;;;;11.07;4.93;;;;;;;5.66;100.00;100483.25;7393410;19;20406;-37
2023/03/17 08:15:03;;;;;;;7.80;4.07;;;;;;;5.80;100.00;100481.50;7392218;19;20564;-36
2023/03/17 08:17:33;;;;;;;9.07;3.73;;;;;;;5.88;100.00;100470.78;7395717;19;20407;-36
2023/03/17 08:20:03;;;;;;;8.00;4.37;;;;;;;6.01;100.00;100480.06;7391152;19;20439;-38
2023/03/17 08:22:33;;;;;;;6.47;3.53;;;;;;;6.02;100.00;100482.75;7394324;19;20946;-37
2023/03/17 08:25:02;;;;;;;12.47;4.30;;;;;;;6.12;100.00;100488.38;7391461;19;20435;-37
2023/03/17 08:27:32;;;;;;;9.57;4.70;;;;;;;6.17;100.00;100486.94;7395896;19;20424;-39
2023/03/17 08:30:05;;;;;;;11.43;4.73;;;;;;;6.34;100.00;100501.59;7387064;19;20435;-37
2023/03/17 08:32:35;;;;;;;10.90;5.10;;;;;;;6.42;100.00;100516.50;7394879;19;20419;-36
2023/03/17 08:35:05;;;;;;;11.27;5.00;;;;;;;6.59;100.00;100520.84;7389832;19;20471;-36
2023/03/17 08:37:36;;;;;;;9.10;4.57;;;;;;;6.51;100.00;100532.34;7394554;19;20415;-36
2023/03/17 08:40:08;;;;;;;11.47;4.60;;;;;;;6.65;100.00;100537.38;7389849;19;20446;-37
2023/03/17 08:42:39;;;;;;;14.63;5.10;;;;;;;6.74;100.00;100535.28;7394916;19;20420;-37
2023/03/17 08:45:11;;;;;;;5.70;2.90;;;;;;;6.77;100.00;100542.28;7388711;19;20439;-38
2023/03/17 08:47:41;;;;;;;7.33;3.77;;;;;;;6.93;100.00;100543.97;7394854;19;20439;-39
2023/03/17 08:50:14;;;;;;;11.17;3.87;;;;;;;7.21;100.00;100535.16;7389370;19;21018;-39
2023/03/17 08:52:44;;;;;;;8.83;4.40;;;;;;;7.33;100.00;100551.19;7394474;19;21054;-37
2023/03/17 08:55:14;;;;;;;12.33;5.23;;;;;;;7.50;100.00;100558.88;7389909;19;20475;-37
2023/03/17 08:57:43;;;;;;;11.17;4.67;;;;;;;7.54;100.00;100571.06;7394054;19;20418;-38
2023/03/17 09:00:19;;;;;;;14.50;4.43;;;;;;;7.57;100.00;100563.50;7387742;19;20462;-40
2023/03/17 09:02:50;;;;;;;7.63;4.00;;;;;;;7.77;100.00;100571.34;7395890;19;20762;-37
2023/03/17 09:05:20;;;;;;;13.17;3.97;;;;;;;7.73;100.00;100577.16;7390538;19;20435;-35
2023/03/17 09:07:51;;;;;;;9.53;4.20;;;;;;;7.94;100.00;100561.91;7393860;19;20483;-36
2023/03/17 09:10:22;;;;;;;14.80;4.83;;;;;;;8.21;100.00;100546.94;7390280;19;20795;-37
2023/03/17 09:12:52;;;;;;;11.73;5.07;;;;;;;8.38;100.00;100544.31;7394570;19;20419;-37
2023/03/17 09:15:24;;;;;;;17.60;5.50;;;;;;;8.40;100.00;100562.38;7389888;19;20442;-38
2023/03/17 09:17:53;;;;;;;12.50;4.33;;;;;;;8.24;100.00;100572.81;7394184;19;20399;-37
2023/03/17 09:20:23;;;;;;;12.73;5.83;;;;;;;8.37;100.00;100568.25;7387305;19;20439;-38
2023/03/17 09:22:53;;;;;;;10.87;3.93;;;;;;;8.54;100.00;100578.47;7393855;19;20427;-38
2023/03/17 09:25:22;;;;;;;8.93;4.13;;;;;;;8.73;100.00;100568.22;7388713;19;20795;-37
2023/03/17 09:27:52;;;;;;;10.30;5.10;;;;;;;9.00;100.00;100559.13;7393716;19;20400;-41
2023/03/17 09:30:25;;;;;;;16.10;6.30;;;;;;;9.17;100.00;100547.03;7386855;19;20447;-39
2023/03/17 09:32:55;;;;;;;8.57;4.27;;;;;;;9.38;100.00;100564.25;7394110;19;20419;-37
2023/03/17 09:35:26;;;;;;;31.93;9.17;;;;;;;9.62;100.00;100558.34;7387242;19;20518;-38
2023/03/17 09:37:56;;;;;;;21.13;7.40;;;;;;;9.66;100.00;100561.16;7392725;19;21336;-37
2023/03/17 09:40:34;;;;;;;8.80;4.17;;;;;;;9.74;100.00;100569.19;7388391;19;21013;-40
2023/03/17 09:43:10;;;;;;;124.17;30.20;;;;;;;10.15;100.00;100560.53;7393127;19;20407;-37
2023/03/17 09:45:44;;;;;;;19.60;6.80;;;;;;;10.22;100.00;100562.53;7391861;19;20451;-37
2023/03/17 09:48:20;;;;;;;8.33;2.60;;;;;;;10.15;100.00;100555.38;7389437;19;20741;-36
2023/03/17 09:50:53;;;;;;;28.73;8.07;;;;;;;10.31;100.00;100552.56;7390910;19;20447;-37
2023/03/17 09:53:25;;;;;;;5.90;2.73;;;;;;;10.34;100.00;100542.41;7387464;19;20740;-38
2023/03/17 09:55:57;;;;;;;9.30;3.97;;;;;;;10.13;100.00;100538.16;7392448;19;20483;-37
2023/03/17 09:58:30;;;;;;;10.20;4.10;;;;;;;10.13;100.00;100550.16;7395757;19;20931;-37
2023/03/17 10:01:04;;;;;;;14.07;5.00;;;;;;;10.28;100.00;100552.47;7398048;19;20463;-38
2023/03/17 10:03:34;;;;;;;7.83;3.60;;;;;;;10.39;100.00;100548.63;7395975;19;20403;-37
2023/03/17 10:06:18;;;;;;;24.93;9.50;;;;;;;10.88;100.00;100545.31;7400912;19;20427;-37
2023/03/17 10:08:52;;;;;;;16.17;6.40;;;;;;;11.11;100.00;100533.22;7396020;19;20974;-38
2023/03/17 10:11:28;;;;;;;14.63;4.97;;;;;;;11.14;100.00;100538.53;7396270;19;20803;-36
2023/03/17 10:14:02;;;;;;;7.37;3.43;;;;;;;10.71;100.00;100536.94;7397310;19;20410;-37
2023/03/17 10:16:40;;;;;;;21.23;6.47;;;;;;;10.54;100.00;100544.91;7396384;19;20419;-38
2023/03/17 10:19:18;;;;;;;9.23;3.67;;;;;;;10.40;100.00;100537.47;7394894;19;20443;-37
2023/03/17 10:21:51;;;;;;;10.53;3.73;;;;;;;10.57;100.00;100539.88;7399049;19;20439;-36
2023/03/17 10:24:21;;;;;;;6.10;2.97;;;;;;;10.85;100.00;100546.06;7394879;19;20447;-36
2023/03/17 10:26:52;;;;;;;11.07;3.27;;;;;;;10.73;100.00;100548.19;7399064;19;20431;-36
2023/03/17 10:29:23;;;;;;;10.17;3.77;;;;;;;10.74;100.00;100540.50;7392778;19;20430;-38
2023/03/17 10:31:56;;;;;;;8.03;3.17;;;;;;;10.64;99.88;100538.38;7399107;19;20768;-37
2023/03/17 10:34:29;;;;;;;11.07;3.50;;;;;;;10.55;100.00;100541.50;7394313;19;20434;-36
2023/03/17 10:37:03;;;;;;;5.73;3.03;;;;;;;10.74;100.00;100544.78;7398140;19;21056;-36
2023/03/17 10:39:33;;;;;;;8.50;3.67;;;;;;;10.94;100.00;100536.06;7395015;19;20446;-36
2023/03/17 10:42:11;;;;;;;7.80;2.90;;;;;;;11.04;100.00;100545.03;7397559;19;20415;-38
2023/03/17 10:44:43;;;;;;;7.17;3.27;;;;;;;11.13;100.00;100534.16;7395101;19;20446;-39
2023/03/17 10:47:34;;;;;;;7.40;3.10;;;;;;;11.36;100.00;100523.78;7397830;19;20404;-38
2023/03/17 10:50:12;;;;;;;7.43;3.47;;;;;;;11.59;100.00;100516.81;7393929;19;20435;-37
2023/03/17 10:52:42;;;;;;;10.70;3.23;;;;;;;11.61;98.39;100503.94;7397895;19;20777;-38
2023/03/17 10:55:15;;;;;;;6.30;3.07;;;;;;;11.69;98.47;100496.44;7393149;19;20427;-40
2023/03/17 10:57:55;;;;;;;6.80;3.20;;;;;;;11.95;97.18;100489.53;7398309;19;20746;-37
2023/03/17 11:00:26;;;;;;;5.07;2.60;;;;;;;12.08;96.80;100495.13;7393462;19;20454;-36
2023/03/17 11:03:00;;;;;;;6.80;2.93;;;;;;;11.69;96.61;100493.88;7397377;19;20399;-39
2023/03/17 11:05:30;;;;;;;6.20;3.00;;;;;;;11.73;96.52;100493.13;7395517;19;20438;-36
2023/03/17 11:08:09;;;;;;;5.30;3.00;;;;;;;11.73;95.93;100494.00;7394679;19;20423;-37
2023/03/17 11:10:41;;;;;;;8.60;3.10;;;;;;;11.87;96.84;100491.00;7395237;19;20466;-35
2023/03/17 11:13:11;;;;;;;9.60;3.50;;;;;;;12.37;96.87;100493.41;7395222;19;20967;-39
2023/03/17 11:15:43;;;;;;;9.33;3.13;;;;;;;12.04;95.02;100475.19;7397204;19;20407;-35
2023/03/17 11:18:22;;;;;;;9.20;2.90;;;;;;;12.23;95.50;100481.78;7394174;19;20392;-38
2023/03/17 11:20:56;;;;;;;7.80;3.03;;;;;;;12.20;94.51;100477.38;7395548;19;20967;-35
2023/03/17 11:23:46;;;;;;;7.23;3.30;;;;;;;12.33;95.48;100470.00;7394317;19;20408;-36
2023/03/17 11:26:43;;;;;;;7.07;2.87;;;;;;;12.37;94.03;100456.34;7396887;19;20410;-35
2023/03/17 11:29:23;;;;;;;6.60;2.80;;;;;;;12.39;94.08;100465.00;7391597;19;20426;-35
2023/03/17 11:32:00;;;;;;;5.90;2.80;;;;;;;12.53;93.61;100442.13;7395700;19;20399;-36
2023/03/17 11:34:42;;;;;;;5.90;2.77;;;;;;;12.53;94.64;100439.56;7392609;19;20958;-35
2023/03/17 11:37:20;;;;;;;5.63;2.50;;;;;;;12.68;93.67;100431.34;7394191;19;20432;-36
2023/03/17 11:39:56;;;;;;;6.17;2.83;;;;;;;12.87;93.81;100416.31;7392033;19;20740;-35
2023/03/17 11:42:28;;;;;;;7.40;2.47;;;;;;;12.78;92.65;100424.72;7396500;19;20407;-38